createdAt,value
2019-02-21T00:01:54.416Z,11.00
2019-02-21T00:04:23.577Z,9.25
2019-02-21T00:06:52.680Z,9.80
2019-02-21T00:09:21.869Z,7.15
2019-02-21T00:11:50.957Z,12.82
2019-02-21T00:14:20.057Z,9.03
2019-02-21T00:16:49.257Z,11.15
2019-02-21T00:19:18.228Z,9.78
2019-02-21T00:21:47.231Z,11.53
2019-02-21T00:24:16.324Z,7.45
2019-02-21T00:26:45.503Z,9.53
2019-02-21T00:29:14.671Z,11.83
2019-02-21T00:31:43.937Z,12.28
2019-02-21T00:34:13.019Z,10.85
2019-02-21T00:36:42.116Z,12.90
2019-02-21T00:39:11.416Z,11.60
2019-02-21T00:41:41.332Z,9.40
2019-02-21T00:44:10.439Z,9.55
2019-02-21T00:46:39.609Z,11.10
2019-02-21T00:49:08.614Z,14.18
2019-02-21T00:51:37.717Z,7.80
2019-02-21T00:54:07.023Z,11.03
2019-02-21T00:56:36.098Z,10.50
2019-02-21T00:59:05.096Z,10.68
2019-02-21T01:01:34.301Z,13.28
2019-02-21T01:04:03.305Z,13.43
2019-02-21T01:06:32.397Z,10.30
2019-02-21T01:09:01.477Z,12.63
2019-02-21T01:11:30.577Z,11.12
2019-02-21T01:13:59.578Z,11.53
2019-02-21T01:16:28.778Z,10.80
2019-02-21T01:18:57.865Z,8.75
2019-02-21T01:21:26.957Z,10.10
2019-02-21T01:23:56.258Z,13.32
2019-02-21T01:26:25.141Z,11.97
2019-02-21T01:28:54.258Z,10.93
2019-02-21T01:31:23.424Z,11.25
2019-02-21T01:33:52.538Z,9.00
2019-02-21T01:36:22.105Z,11.38
2019-02-21T01:38:51.343Z,11.55
2019-02-21T01:41:20.327Z,13.30
2019-02-21T01:43:49.424Z,10.05
2019-02-21T01:46:18.729Z,12.28
2019-02-21T01:48:47.834Z,8.60
2019-02-21T01:51:16.916Z,7.60
2019-02-21T01:53:46.326Z,11.68
2019-02-21T01:56:15.508Z,13.68
2019-02-21T01:58:47.267Z,13.28
2019-02-21T02:01:16.372Z,11.40
2019-02-21T02:03:45.704Z,11.90
2019-02-21T02:06:14.967Z,14.20
2019-02-21T02:08:44.128Z,8.53
2019-02-21T02:11:13.274Z,10.88
2019-02-21T02:13:42.357Z,14.15
2019-02-21T02:16:11.451Z,13.88
2019-02-21T02:18:40.657Z,13.08
2019-02-21T02:21:09.524Z,14.43
2019-02-21T02:23:38.738Z,14.85
2019-02-21T02:26:07.955Z,10.43
2019-02-21T02:28:36.956Z,12.75
2019-02-21T02:31:06.245Z,12.13
2019-02-21T02:33:35.337Z,10.60
2019-02-21T02:36:04.337Z,11.97
2019-02-21T02:38:33.622Z,13.53
2019-02-21T02:41:02.503Z,13.03
2019-02-21T02:43:31.618Z,14.53
2019-02-21T02:46:00.703Z,12.73
2019-02-21T02:48:29.802Z,13.43
2019-02-21T02:50:58.798Z,15.93
2019-02-21T02:53:27.784Z,13.22
2019-02-21T02:55:56.901Z,12.80
2019-02-21T02:58:25.879Z,11.83
2019-02-21T03:00:54.977Z,19.07
2019-02-21T03:03:24.177Z,16.95
2019-02-21T03:05:53.267Z,12.68
2019-02-21T03:08:22.567Z,13.13
2019-02-21T03:10:51.660Z,14.03
2019-02-21T03:13:20.656Z,15.58
2019-02-21T03:15:50.078Z,14.38
2019-02-21T03:18:19.156Z,14.30
2019-02-21T03:20:48.236Z,15.23
2019-02-21T03:23:17.438Z,14.10
2019-02-21T03:25:46.523Z,13.25
2019-02-21T03:28:15.636Z,13.90
2019-02-21T03:30:44.920Z,15.68
2019-02-21T03:33:14.146Z,15.70
2019-02-21T03:35:43.633Z,18.00
2019-02-21T03:38:12.837Z,17.12
2019-02-21T03:40:41.815Z,15.25
2019-02-21T03:43:10.919Z,17.90
2019-02-21T03:45:39.914Z,14.78
2019-02-21T03:48:28.257Z,15.30
2019-02-21T03:50:57.557Z,9.28
2019-02-21T03:53:26.690Z,17.82
2019-02-21T03:55:55.783Z,20.60
2019-02-21T03:58:25.157Z,11.65
2019-02-21T04:00:54.030Z,19.32
2019-02-21T04:03:23.029Z,18.75
2019-02-21T04:05:52.239Z,16.00
2019-02-21T04:08:21.337Z,15.05
2019-02-21T04:10:50.417Z,17.15
2019-02-21T04:13:19.720Z,15.72
2019-02-21T04:15:48.823Z,17.73
2019-02-21T04:18:17.817Z,14.58
2019-02-21T04:20:46.788Z,18.17
2019-02-21T04:23:15.800Z,15.48
2019-02-21T04:25:44.680Z,16.00
2019-02-21T04:28:13.904Z,15.10
2019-02-21T04:30:42.998Z,13.40
2019-02-21T04:33:11.970Z,18.90
2019-02-21T04:35:41.176Z,19.07
2019-02-21T04:38:10.259Z,16.37
2019-02-21T04:40:39.381Z,17.57
2019-02-21T04:43:08.682Z,15.88
2019-02-21T04:45:37.778Z,14.10
2019-02-21T04:48:06.858Z,15.83
2019-02-21T04:50:36.157Z,13.08
2019-02-21T04:53:05.256Z,16.15
2019-02-21T04:55:34.366Z,16.97
2019-02-21T04:58:03.766Z,11.90
2019-02-21T05:00:32.836Z,15.68
2019-02-21T05:03:01.937Z,14.43
2019-02-21T05:05:31.137Z,15.08
2019-02-21T05:08:00.137Z,14.33
2019-02-21T05:10:29.218Z,18.67
2019-02-21T05:12:58.312Z,19.27
2019-02-21T05:15:27.320Z,14.93
2019-02-21T05:17:56.398Z,5.78
2019-02-21T05:20:25.598Z,14.40
2019-02-21T05:22:54.697Z,13.28
2019-02-21T05:25:23.853Z,16.40
2019-02-21T05:27:54.647Z,18.23
2019-02-21T05:30:25.278Z,17.92
2019-02-21T05:32:55.792Z,16.90
2019-02-21T05:35:26.640Z,16.25
2019-02-21T05:38:07.787Z,16.50
2019-02-21T05:40:47.660Z,18.92
2019-02-21T05:43:27.319Z,15.40
2019-02-21T05:46:10.221Z,13.45
2019-02-21T05:48:43.854Z,15.28
2019-02-21T05:51:14.894Z,16.90
2019-02-21T05:53:54.941Z,13.83
2019-02-21T05:56:44.182Z,15.98
2019-02-21T05:59:14.829Z,19.67
2019-02-21T06:01:51.619Z,16.42
2019-02-21T06:04:25.094Z,13.75
2019-02-21T06:07:14.179Z,16.85
2019-02-21T06:09:47.679Z,17.30
2019-02-21T06:12:32.878Z,14.18
2019-02-21T06:14:53.735Z,14.03
2019-02-21T06:17:27.539Z,15.48
2019-02-21T06:19:58.311Z,16.60
2019-02-21T06:22:32.061Z,15.93
2019-02-21T06:25:08.734Z,14.25
2019-02-21T06:27:48.908Z,16.67
2019-02-21T06:30:28.782Z,17.35
2019-02-21T06:33:04.919Z,17.05
2019-02-21T06:35:28.657Z,18.70
2019-02-21T06:37:57.822Z,14.70
2019-02-21T06:40:26.982Z,22.37
2019-02-21T06:42:56.062Z,13.70
2019-02-21T06:45:25.058Z,18.57
2019-02-21T06:47:54.271Z,14.53
2019-02-21T06:50:26.985Z,19.30
2019-02-21T06:52:53.907Z,19.00
2019-02-21T06:55:23.199Z,15.53
2019-02-21T06:57:52.281Z,16.85
2019-02-21T07:00:21.307Z,17.75
2019-02-21T07:02:50.501Z,13.40
2019-02-21T07:05:19.461Z,18.30
2019-02-21T07:07:48.563Z,23.35
2019-02-21T07:10:17.863Z,11.60
2019-02-21T07:12:46.962Z,21.10
2019-02-21T07:15:16.110Z,21.12
2019-02-21T07:17:49.244Z,18.82
2019-02-21T07:20:16.338Z,25.25
2019-02-21T07:22:45.822Z,22.80
2019-02-21T07:25:19.604Z,17.30
2019-02-21T07:27:48.703Z,19.02
2019-02-21T07:30:21.102Z,23.15
2019-02-21T07:33:09.722Z,17.52
2019-02-21T07:35:38.719Z,20.60
2019-02-21T07:38:07.802Z,23.73
2019-02-21T07:40:37.105Z,22.55
2019-02-21T07:43:06.227Z,21.77
2019-02-21T07:45:36.408Z,24.37
2019-02-21T07:48:05.948Z,17.82
2019-02-21T07:50:35.023Z,23.83
2019-02-21T07:53:04.222Z,18.27
2019-02-21T07:55:33.423Z,23.92
2019-02-21T07:58:03.961Z,22.13
2019-02-21T08:00:33.562Z,23.07
2019-02-21T08:03:02.740Z,15.48
2019-02-21T08:05:31.958Z,19.82
2019-02-21T08:08:01.166Z,21.73
2019-02-21T08:10:33.473Z,24.32
2019-02-21T08:13:01.024Z,23.98
2019-02-21T08:15:30.285Z,29.63
2019-02-21T08:17:59.232Z,28.15
2019-02-21T08:20:34.185Z,26.40
2019-02-21T08:22:58.916Z,20.25
2019-02-21T08:25:28.003Z,25.43
2019-02-21T08:27:57.093Z,24.87
2019-02-21T08:30:29.021Z,28.23
2019-02-21T08:33:01.122Z,25.65
2019-02-21T08:35:31.042Z,22.98
2019-02-21T08:38:00.223Z,23.20
2019-02-21T08:40:29.330Z,28.45
2019-02-21T08:42:58.559Z,28.05
2019-02-21T08:45:27.722Z,21.48
2019-02-21T08:47:56.803Z,26.55
2019-02-21T08:50:28.583Z,24.30
2019-02-21T08:52:57.662Z,22.55
2019-02-21T08:55:26.963Z,20.35
2019-02-21T08:57:56.062Z,18.62
2019-02-21T09:00:25.282Z,31.60
2019-02-21T09:02:54.245Z,18.62
2019-02-21T09:05:23.462Z,24.10
2019-02-21T09:07:52.550Z,23.77
2019-02-21T09:10:48.460Z,26.70
2019-02-21T09:13:17.450Z,31.00
2019-02-21T09:15:46.701Z,20.25
2019-02-21T09:18:15.963Z,23.38
2019-02-21T09:20:47.680Z,21.90
2019-02-21T09:23:15.947Z,21.93
2019-02-21T09:25:45.502Z,26.50
2019-02-21T09:28:15.845Z,27.10
2019-02-21T09:30:45.123Z,32.25
2019-02-21T09:33:17.292Z,33.60
2019-02-21T09:35:45.865Z,31.87
2019-02-21T09:38:14.963Z,26.65
2019-02-21T09:40:44.262Z,26.75
2019-02-21T09:43:13.260Z,30.88
2019-02-21T09:45:42.323Z,26.95
2019-02-21T09:48:12.113Z,25.90
2019-02-21T09:50:41.871Z,23.42
2019-02-21T09:53:10.970Z,23.92
2019-02-21T09:55:40.263Z,27.80
2019-02-21T09:58:09.362Z,25.92
2019-02-21T10:00:38.349Z,21.70
2019-02-21T10:03:07.727Z,23.95
2019-02-21T10:05:36.828Z,16.23
2019-02-21T10:08:05.870Z,29.57
2019-02-21T10:10:35.111Z,22.22
2019-02-21T10:13:04.590Z,24.92
2019-02-21T10:15:35.191Z,24.52
2019-02-21T10:18:04.270Z,24.77
2019-02-21T10:20:33.473Z,25.30
2019-02-21T10:23:02.666Z,24.02
2019-02-21T10:25:31.910Z,18.80
2019-02-21T10:28:00.983Z,23.35
2019-02-21T10:30:30.182Z,26.50
2019-02-21T10:32:59.380Z,29.77
2019-02-21T10:35:28.323Z,28.73
2019-02-21T10:37:57.342Z,25.35
2019-02-21T10:40:26.457Z,25.08
2019-02-21T10:42:55.559Z,31.48
2019-02-21T10:45:24.779Z,28.30
2019-02-21T10:47:54.966Z,26.30
2019-02-21T10:50:24.162Z,24.27
2019-02-21T10:52:53.271Z,32.30
2019-02-21T10:55:22.442Z,31.10
2019-02-21T10:57:51.543Z,27.73
2019-02-21T11:00:23.008Z,21.07
2019-02-21T11:02:52.327Z,29.15
2019-02-21T11:05:21.448Z,31.70
2019-02-21T11:07:50.442Z,33.60
2019-02-21T11:10:25.204Z,26.77
2019-02-21T11:12:54.522Z,31.73
2019-02-21T11:15:24.800Z,35.20
2019-02-21T11:17:53.832Z,30.62
2019-02-21T11:20:23.631Z,33.92
2019-02-21T11:22:52.778Z,32.20
2019-02-21T11:25:21.822Z,21.52
2019-02-21T11:27:51.766Z,26.65
2019-02-21T11:30:21.555Z,23.57
2019-02-21T11:32:50.564Z,32.85
2019-02-21T11:35:19.651Z,38.33
2019-02-21T11:37:48.644Z,33.58
2019-02-21T11:40:18.498Z,26.85
2019-02-21T11:42:47.853Z,25.08
2019-02-21T11:45:18.263Z,26.52
2019-02-21T11:47:47.503Z,22.45
2019-02-21T11:50:19.049Z,22.42
2019-02-21T11:52:48.152Z,31.45
2019-02-21T11:55:19.682Z,22.37
2019-02-21T11:57:48.761Z,25.23
2019-02-21T12:00:23.822Z,30.08
2019-02-21T12:02:53.118Z,29.05
2019-02-21T12:05:30.509Z,21.55
2019-02-21T12:07:53.124Z,26.40
2019-02-21T12:10:22.436Z,24.77
2019-02-21T12:12:51.410Z,24.90
2019-02-21T12:15:20.317Z,20.82
2019-02-21T12:17:49.316Z,22.93
2019-02-21T12:20:19.365Z,21.65
2019-02-21T12:22:48.511Z,25.97
2019-02-21T12:25:20.070Z,17.15
2019-02-21T12:27:49.273Z,26.17
2019-02-21T12:30:19.328Z,22.70
2019-02-21T12:32:48.383Z,27.50
2019-02-21T12:35:28.782Z,24.30
2019-02-21T12:37:48.214Z,21.90
2019-02-21T12:40:23.366Z,22.05
2019-02-21T12:42:52.448Z,21.42
2019-02-21T12:45:23.022Z,22.13
2019-02-21T12:47:53.768Z,20.88
2019-02-21T12:50:22.597Z,21.33
2019-02-21T12:52:51.709Z,17.87
2019-02-21T12:55:27.571Z,23.85
2019-02-21T12:57:51.538Z,21.85
2019-02-21T13:00:21.687Z,17.67
2019-02-21T13:02:51.056Z,18.02
2019-02-21T13:05:20.039Z,15.72
2019-02-21T13:07:49.454Z,12.35
2019-02-21T13:10:21.602Z,13.60
2019-02-21T13:12:50.700Z,12.93
2019-02-21T13:15:19.689Z,15.83
2019-02-21T13:17:50.959Z,15.93
2019-02-21T13:20:19.425Z,16.90
2019-02-21T13:22:48.411Z,13.83
2019-02-21T13:25:18.635Z,12.40
2019-02-21T13:27:48.046Z,16.45
2019-02-21T13:30:18.874Z,15.10
2019-02-21T13:32:48.177Z,17.20
2019-02-21T13:35:17.277Z,13.55
2019-02-21T13:37:46.267Z,15.55
2019-02-21T13:40:16.597Z,12.50
2019-02-21T13:42:45.809Z,12.30
2019-02-21T13:45:18.301Z,16.97
2019-02-21T13:47:47.461Z,15.60
2019-02-21T13:50:18.809Z,12.70
2019-02-21T13:52:47.806Z,15.75
2019-02-21T13:55:17.111Z,15.48
2019-02-21T13:57:46.201Z,14.63
2019-02-21T14:00:17.752Z,13.25
2019-02-21T14:02:46.845Z,11.55
2019-02-21T14:05:15.833Z,12.95
2019-02-21T14:07:44.733Z,18.20
2019-02-21T14:10:15.382Z,14.07
2019-02-21T14:12:44.462Z,13.70
2019-02-21T14:15:22.363Z,15.45
2019-02-21T14:17:51.651Z,15.55
2019-02-21T14:20:20.652Z,12.85
2019-02-21T14:22:49.951Z,11.88
2019-02-21T14:25:18.934Z,11.78
2019-02-21T14:27:47.845Z,11.08
2019-02-21T14:30:19.586Z,12.37
2019-02-21T14:32:48.591Z,17.77
2019-02-21T14:35:17.590Z,14.00
2019-02-21T14:37:46.883Z,18.55
2019-02-21T14:40:16.805Z,16.50
2019-02-21T14:42:45.778Z,16.67
2019-02-21T14:45:17.693Z,16.73
2019-02-21T14:47:46.841Z,17.20
2019-02-21T14:50:16.979Z,13.93
2019-02-21T14:52:46.165Z,14.25
2019-02-21T14:55:16.068Z,12.55
2019-02-21T14:57:45.177Z,11.30
2019-02-21T15:00:26.346Z,14.00
2019-02-21T15:02:57.615Z,16.65
2019-02-21T15:05:26.203Z,15.63
2019-02-21T15:07:55.471Z,14.47
2019-02-21T15:10:24.583Z,16.17
2019-02-21T15:12:53.762Z,15.75
2019-02-21T15:15:25.223Z,10.48
2019-02-21T15:17:54.322Z,12.93
2019-02-21T15:20:23.542Z,15.05
2019-02-21T15:22:54.015Z,14.15
2019-02-21T15:25:23.243Z,12.80
2019-02-21T15:27:52.343Z,17.23
2019-02-21T15:30:26.362Z,15.75
2019-02-21T15:32:56.210Z,18.40
2019-02-21T15:35:25.462Z,15.28
2019-02-21T15:37:54.642Z,13.60
2019-02-21T15:40:23.763Z,19.95
2019-02-21T15:42:52.987Z,10.50
2019-02-21T15:45:24.737Z,11.83
2019-02-21T15:47:53.670Z,16.32
2019-02-21T15:50:22.742Z,16.70
2019-02-21T15:52:53.366Z,15.78
2019-02-21T15:55:22.940Z,18.40
2019-02-21T15:58:00.506Z,17.12
2019-02-21T16:00:24.176Z,13.25
2019-02-21T16:02:53.200Z,11.15
2019-02-21T16:05:22.303Z,17.00
2019-02-21T16:07:51.579Z,10.43
2019-02-21T16:10:25.298Z,14.50
2019-02-21T16:12:54.352Z,16.27
2019-02-21T16:15:23.786Z,14.53
2019-02-21T16:17:52.677Z,17.60
2019-02-21T16:20:22.008Z,19.95
2019-02-21T16:22:51.018Z,19.90
2019-02-21T16:25:25.017Z,15.48
2019-02-21T16:27:55.529Z,18.25
2019-02-21T16:30:25.046Z,15.32
2019-02-21T16:32:54.074Z,13.10
2019-02-21T16:35:23.345Z,15.78
2019-02-21T16:37:52.543Z,15.10
2019-02-21T16:40:21.744Z,18.20
2019-02-21T16:42:50.822Z,9.95
2019-02-21T16:45:21.064Z,18.15
2019-02-21T16:47:50.281Z,22.45
2019-02-21T16:50:29.472Z,12.30
2019-02-21T16:52:50.282Z,13.25
2019-02-21T16:55:21.437Z,17.17
2019-02-21T16:57:50.653Z,15.63
2019-02-21T17:00:23.919Z,11.97
2019-02-21T17:02:52.850Z,18.05
2019-02-21T17:05:22.125Z,12.80
2019-02-21T17:07:51.330Z,16.90
2019-02-21T17:10:20.425Z,21.15
2019-02-21T17:12:49.603Z,19.25
2019-02-21T17:15:20.145Z,18.98
2019-02-21T17:17:49.222Z,23.45
2019-02-21T17:20:20.698Z,20.23
2019-02-21T17:22:50.287Z,18.62
2019-02-21T17:25:19.282Z,14.75
2019-02-21T17:27:51.871Z,22.87
2019-02-21T17:30:21.362Z,20.43
2019-02-21T17:32:50.463Z,19.40
2019-02-21T17:35:19.463Z,19.23
2019-02-21T17:37:49.663Z,12.40
2019-02-21T17:40:24.143Z,21.33
2019-02-21T17:42:53.358Z,15.45
2019-02-21T17:45:22.581Z,20.12
2019-02-21T17:47:51.702Z,22.00
2019-02-21T17:50:21.403Z,18.05
2019-02-21T17:52:50.522Z,18.23
2019-02-21T17:55:21.022Z,14.38
2019-02-21T17:57:50.168Z,15.63
2019-02-21T18:00:22.820Z,22.15
2019-02-21T18:02:51.767Z,12.28
2019-02-21T18:05:21.074Z,23.57
2019-02-21T18:07:50.176Z,21.00
2019-02-21T18:10:19.325Z,14.30
2019-02-21T18:12:48.487Z,17.35
2019-02-21T18:15:20.438Z,17.75
2019-02-21T18:17:49.742Z,16.20
2019-02-21T18:20:19.088Z,17.40
2019-02-21T18:22:48.450Z,15.98
2019-02-21T18:25:41.994Z,23.42
2019-02-21T18:28:11.098Z,20.45
2019-02-21T18:30:40.678Z,31.17
2019-02-21T18:33:09.668Z,18.42
2019-02-21T18:35:38.920Z,19.25
2019-02-21T18:38:08.002Z,22.15
2019-02-21T18:40:37.537Z,19.32
2019-02-21T18:43:06.969Z,19.02
2019-02-21T18:45:36.137Z,21.42
2019-02-21T18:48:05.511Z,18.27
2019-02-21T18:50:38.168Z,20.52
2019-02-21T18:53:05.228Z,15.63
2019-02-21T18:55:34.542Z,15.78
2019-02-21T18:58:05.162Z,14.10
2019-02-21T19:00:34.362Z,17.07
2019-02-21T19:03:03.462Z,20.95
2019-02-21T19:05:35.732Z,21.33
2019-02-21T19:08:05.398Z,22.40
2019-02-21T19:10:34.437Z,25.90
2019-02-21T19:13:07.667Z,22.82
2019-02-21T19:15:36.202Z,23.45
2019-02-21T19:18:05.403Z,22.17
2019-02-21T19:20:34.515Z,16.80
2019-02-21T19:23:04.037Z,23.07
2019-02-21T19:25:33.099Z,25.62
2019-02-21T19:28:02.185Z,23.27
2019-02-21T19:30:44.668Z,26.33
2019-02-21T19:33:13.704Z,24.75
2019-02-21T19:35:42.779Z,21.25
2019-02-21T19:38:11.976Z,24.02
2019-02-21T19:40:41.144Z,29.82
2019-02-21T19:43:10.169Z,28.87
2019-02-21T19:45:39.517Z,24.15
2019-02-21T19:48:08.665Z,32.23
2019-02-21T19:50:37.662Z,22.27
2019-02-21T19:53:06.849Z,21.77
2019-02-21T19:55:35.729Z,27.48
2019-02-21T19:58:05.140Z,24.05
2019-02-21T20:00:36.189Z,26.15
2019-02-21T20:03:05.282Z,35.90
2019-02-21T20:05:37.524Z,27.25
2019-02-21T20:08:08.875Z,32.90
2019-02-21T20:10:38.609Z,25.35
2019-02-21T20:13:09.350Z,30.23
2019-02-21T20:15:38.554Z,29.48
2019-02-21T20:18:07.624Z,32.78
2019-02-21T20:20:36.737Z,30.72
2019-02-21T20:23:05.722Z,29.92
2019-02-21T20:25:34.806Z,31.35
2019-02-21T20:28:03.915Z,28.07
2019-02-21T20:30:33.026Z,26.82
2019-02-21T20:33:02.198Z,23.02
2019-02-21T20:35:31.205Z,28.10
2019-02-21T20:38:00.383Z,27.42
2019-02-21T20:40:29.494Z,29.63
2019-02-21T20:42:58.584Z,28.42
2019-02-21T20:45:27.989Z,33.35
2019-02-21T20:47:57.081Z,32.80
2019-02-21T20:50:26.179Z,31.10
2019-02-21T20:52:55.489Z,20.55
2019-02-21T20:55:24.588Z,22.98
2019-02-21T20:57:55.204Z,26.48
2019-02-21T21:00:24.804Z,28.55
2019-02-21T21:02:53.814Z,28.73
2019-02-21T21:05:23.213Z,16.57
2019-02-21T21:07:52.835Z,24.32
2019-02-21T21:10:22.328Z,28.42
2019-02-21T21:12:52.858Z,20.20
2019-02-21T21:15:22.055Z,23.77
2019-02-21T21:17:51.036Z,19.42
2019-02-21T21:20:20.029Z,24.60
2019-02-21T21:22:49.229Z,30.65
2019-02-21T21:25:19.044Z,24.63
2019-02-21T21:28:09.022Z,28.27
2019-02-21T21:30:38.124Z,24.32
2019-02-21T21:33:07.115Z,26.27
2019-02-21T21:35:36.129Z,24.57
2019-02-21T21:38:05.204Z,20.95
2019-02-21T21:40:34.110Z,27.77
2019-02-21T21:43:03.412Z,20.23
2019-02-21T21:45:32.390Z,25.32
2019-02-21T21:48:01.578Z,21.27
2019-02-21T21:50:33.063Z,23.83
2019-02-21T21:53:02.129Z,19.73
2019-02-21T21:55:31.345Z,21.75
2019-02-21T21:58:00.530Z,23.00
2019-02-21T22:00:31.054Z,21.02
2019-02-21T22:03:00.151Z,18.23
2019-02-21T22:05:29.250Z,26.27
2019-02-21T22:07:58.363Z,21.70
2019-02-21T22:10:27.662Z,20.80
2019-02-21T22:12:56.764Z,25.90
2019-02-21T22:15:25.950Z,18.98
2019-02-21T22:17:54.957Z,21.35
2019-02-21T22:20:24.141Z,20.70
2019-02-21T22:22:53.341Z,24.25
2019-02-21T22:25:22.432Z,20.32
2019-02-21T22:27:51.622Z,21.95
2019-02-21T22:30:21.321Z,27.77
2019-02-21T22:32:50.218Z,27.00
2019-02-21T22:35:19.418Z,23.38
2019-02-21T22:37:48.411Z,18.65
2019-02-21T22:40:18.464Z,26.23
2019-02-21T22:42:47.628Z,18.82
2019-02-21T22:45:16.719Z,25.17
2019-02-21T22:47:45.710Z,19.87
2019-02-21T22:50:16.620Z,23.47
2019-02-21T22:52:45.631Z,19.55
2019-02-21T22:55:14.738Z,20.02
2019-02-21T22:57:44.038Z,20.92
2019-02-21T23:00:37.098Z,23.45
2019-02-21T23:03:09.473Z,26.68
2019-02-21T23:06:13.475Z,24.98
2019-02-21T23:08:45.539Z,21.55
2019-02-21T23:11:14.778Z,25.02
2019-02-21T23:13:43.822Z,26.68
2019-02-21T23:16:13.036Z,21.95
2019-02-21T23:18:42.009Z,18.17
2019-02-21T23:21:11.119Z,24.12
2019-02-21T23:23:40.359Z,19.98
2019-02-21T23:26:09.688Z,21.85
2019-02-21T23:28:38.730Z,20.95
2019-02-21T23:31:07.918Z,20.37
2019-02-21T23:33:38.648Z,20.92
2019-02-21T23:36:07.848Z,22.58
2019-02-21T23:38:37.630Z,18.82
2019-02-21T23:41:06.750Z,25.30
2019-02-21T23:43:35.958Z,31.57
2019-02-21T23:46:05.248Z,21.33
2019-02-21T23:48:34.448Z,29.23
2019-02-21T23:51:04.447Z,38.60
2019-02-21T23:53:33.763Z,23.02
2019-02-21T23:56:02.861Z,25.10
2019-02-21T23:58:32.076Z,29.75
